sensor_id;sensor_type;location;lat;lon;timestamp;P1;durP1;ratioP1;P2;durP2;ratioP2
22829;SDS011;11581;51.250;6.778;2023-03-20T00:01:54;7.60;;;4.68;;
22829;SDS011;11581;51.250;6.778;2023-03-20T00:04:21;7.45;;;4.72;;
22829;SDS011;11581;51.250;6.778;2023-03-20T00:06:50;6.72;;;4.75;;
22829;SDS011;11581;51.250;6.778;2023-03-20T00:09:16;10.48;;;5.03;;
22829;SDS011;11581;51.250;6.778;2023-03-20T00:11:45;7.68;;;5.20;;
22829;SDS011;11581;51.250;6.778;2023-03-20T00:14:14;7.72;;;5.05;;
22829;SDS011;11581;51.250;6.778;2023-03-20T00:16:44;6.90;;;4.93;;
22829;SDS011;11581;51.250;6.778;2023-03-20T00:19:13;6.55;;;4.75;;
22829;SDS011;11581;51.250;6.778;2023-03-20T00:21:41;5.68;;;4.55;;
22829;SDS011;11581;51.250;6.778;2023-03-20T00:24:09;6.80;;;4.57;;
22829;SDS011;11581;51.250;6.778;2023-03-20T00:26:36;7.63;;;4.35;;
22829;SDS011;11581;51.250;6.778;2023-03-20T00:29:04;6.65;;;4.57;;
22829;SDS011;11581;51.250;6.778;2023-03-20T00:31:32;6.50;;;4.07;;
22829;SDS011;11581;51.250;6.778;2023-03-20T00:34:02;6.38;;;4.03;;
22829;SDS011;11581;51.250;6.778;2023-03-20T00:36:31;5.15;;;3.97;;
22829;SDS011;11581;51.250;6.778;2023-03-20T00:38:58;8.63;;;4.30;;
22829;SDS011;11581;51.250;6.778;2023-03-20T00:41:27;6.90;;;4.63;;
22829;SDS011;11581;51.250;6.778;2023-03-20T00:43:57;5.50;;;4.03;;
22829;SDS011;11581;51.250;6.778;2023-03-20T00:46:26;5.55;;;4.00;;
22829;SDS011;11581;51.250;6.778;2023-03-20T00:48:54;5.85;;;4.40;;
22829;SDS011;11581;51.250;6.778;2023-03-20T00:51:22;6.70;;;4.70;;
22829;SDS011;11581;51.250;6.778;2023-03-20T00:53:50;6.45;;;4.18;;
22829;SDS011;11581;51.250;6.778;2023-03-20T00:56:24;5.03;;;3.38;;
22829;SDS011;11581;51.250;6.778;2023-03-20T00:58:56;6.60;;;4.60;;
22829;SDS011;11581;51.250;6.778;2023-03-20T01:01:23;6.88;;;4.30;;
22829;SDS011;11581;51.250;6.778;2023-03-20T01:03:50;6.25;;;3.80;;
22829;SDS011;11581;51.250;6.778;2023-03-20T01:06:17;6.57;;;4.15;;
22829;SDS011;11581;51.250;6.778;2023-03-20T01:08:46;7.80;;;4.10;;
22829;SDS011;11581;51.250;6.778;2023-03-20T01:11:13;6.20;;;4.05;;
22829;SDS011;11581;51.250;6.778;2023-03-20T01:13:42;5.30;;;3.78;;
22829;SDS011;11581;51.250;6.778;2023-03-20T01:16:13;5.40;;;3.88;;
22829;SDS011;11581;51.250;6.778;2023-03-20T01:18:46;6.72;;;4.82;;
22829;SDS011;11581;51.250;6.778;2023-03-20T01:21:13;6.10;;;4.38;;
22829;SDS011;11581;51.250;6.778;2023-03-20T01:23:40;5.60;;;4.00;;
22829;SDS011;11581;51.250;6.778;2023-03-20T01:26:11;6.05;;;4.25;;
22829;SDS011;11581;51.250;6.778;2023-03-20T01:28:46;6.50;;;4.05;;
22829;SDS011;11581;51.250;6.778;2023-03-20T01:31:14;6.82;;;4.43;;
22829;SDS011;11581;51.250;6.778;2023-03-20T01:33:42;6.30;;;4.00;;
22829;SDS011;11581;51.250;6.778;2023-03-20T01:36:09;6.75;;;4.25;;
22829;SDS011;11581;51.250;6.778;2023-03-20T01:38:37;6.40;;;4.13;;
22829;SDS011;11581;51.250;6.778;2023-03-20T01:41:05;6.35;;;4.35;;
22829;SDS011;11581;51.250;6.778;2023-03-20T01:43:38;6.35;;;4.18;;
22829;SDS011;11581;51.250;6.778;2023-03-20T01:46:14;6.70;;;4.57;;
22829;SDS011;11581;51.250;6.778;2023-03-20T01:48:57;6.55;;;4.57;;
22829;SDS011;11581;51.250;6.778;2023-03-20T01:51:27;6.10;;;4.47;;
22829;SDS011;11581;51.250;6.778;2023-03-20T01:54:00;6.78;;;4.60;;
22829;SDS011;11581;51.250;6.778;2023-03-20T01:56:33;6.57;;;4.53;;
22829;SDS011;11581;51.250;6.778;2023-03-20T01:59:05;7.28;;;4.70;;
22829;SDS011;11581;51.250;6.778;2023-03-20T02:01:38;6.18;;;4.65;;
22829;SDS011;11581;51.250;6.778;2023-03-20T02:04:07;7.88;;;5.18;;
22829;SDS011;11581;51.250;6.778;2023-03-20T02:06:49;8.15;;;5.70;;
22829;SDS011;11581;51.250;6.778;2023-03-20T02:09:30;8.10;;;5.32;;
22829;SDS011;11581;51.250;6.778;2023-03-20T02:11:57;8.85;;;5.55;;
22829;SDS011;11581;51.250;6.778;2023-03-20T02:14:27;7.70;;;5.25;;
22829;SDS011;11581;51.250;6.778;2023-03-20T02:17:02;10.23;;;5.10;;
22829;SDS011;11581;51.250;6.778;2023-03-20T02:19:44;8.60;;;5.35;;
22829;SDS011;11581;51.250;6.778;2023-03-20T02:22:25;8.77;;;5.47;;
22829;SDS011;11581;51.250;6.778;2023-03-20T02:25:19;7.53;;;5.22;;
22829;SDS011;11581;51.250;6.778;2023-03-20T02:28:18;7.90;;;5.43;;
22829;SDS011;11581;51.250;6.778;2023-03-20T02:31:10;8.63;;;5.05;;
22829;SDS011;11581;51.250;6.778;2023-03-20T02:34:07;8.52;;;5.30;;
22829;SDS011;11581;51.250;6.778;2023-03-20T02:39:58;7.45;;;5.38;;
22829;SDS011;11581;51.250;6.778;2023-03-20T02:42:38;8.90;;;5.72;;
22829;SDS011;11581;51.250;6.778;2023-03-20T02:45:12;11.52;;;5.75;;
22829;SDS011;11581;51.250;6.778;2023-03-20T02:47:47;8.40;;;5.68;;
22829;SDS011;11581;51.250;6.778;2023-03-20T02:50:21;7.55;;;5.53;;
22829;SDS011;11581;51.250;6.778;2023-03-20T02:52:58;10.30;;;5.85;;
22829;SDS011;11581;51.250;6.778;2023-03-20T02:55:38;8.07;;;5.53;;
22829;SDS011;11581;51.250;6.778;2023-03-20T02:58:11;8.65;;;5.57;;
22829;SDS011;11581;51.250;6.778;2023-03-20T03:00:44;7.50;;;5.18;;
22829;SDS011;11581;51.250;6.778;2023-03-20T03:03:17;13.65;;;5.75;;
22829;SDS011;11581;51.250;6.778;2023-03-20T03:05:48;9.05;;;6.00;;
22829;SDS011;11581;51.250;6.778;2023-03-20T03:08:20;7.88;;;5.32;;
22829;SDS011;11581;51.250;6.778;2023-03-20T03:10:52;8.40;;;6.00;;
22829;SDS011;11581;51.250;6.778;2023-03-20T03:13:24;7.63;;;5.60;;
22829;SDS011;11581;51.250;6.778;2023-03-20T03:18:27;9.32;;;6.05;;
22829;SDS011;11581;51.250;6.778;2023-03-20T03:20:57;9.38;;;6.10;;
22829;SDS011;11581;51.250;6.778;2023-03-20T03:23:28;9.15;;;5.88;;
22829;SDS011;11581;51.250;6.778;2023-03-20T03:25:58;9.60;;;6.18;;
22829;SDS011;11581;51.250;6.778;2023-03-20T03:28:29;9.48;;;5.95;;
22829;SDS011;11581;51.250;6.778;2023-03-20T03:31:02;10.75;;;5.82;;
22829;SDS011;11581;51.250;6.778;2023-03-20T03:33:31;10.00;;;6.15;;
22829;SDS011;11581;51.250;6.778;2023-03-20T03:36:05;10.10;;;7.22;;
22829;SDS011;11581;51.250;6.778;2023-03-20T03:38:39;11.60;;;6.57;;
22829;SDS011;11581;51.250;6.778;2023-03-20T03:41:19;10.48;;;6.13;;
22829;SDS011;11581;51.250;6.778;2023-03-20T03:43:52;10.93;;;6.40;;
22829;SDS011;11581;51.250;6.778;2023-03-20T03:46:26;8.73;;;6.00;;
22829;SDS011;11581;51.250;6.778;2023-03-20T03:48:59;8.93;;;6.28;;
22829;SDS011;11581;51.250;6.778;2023-03-20T03:51:30;10.02;;;7.15;;
22829;SDS011;11581;51.250;6.778;2023-03-20T03:54:08;10.98;;;7.03;;
22829;SDS011;11581;51.250;6.778;2023-03-20T03:56:40;9.63;;;7.00;;
22829;SDS011;11581;51.250;6.778;2023-03-20T03:59:12;10.00;;;6.65;;
22829;SDS011;11581;51.250;6.778;2023-03-20T04:01:44;10.32;;;6.68;;
22829;SDS011;11581;51.250;6.778;2023-03-20T04:04:12;10.55;;;6.45;;
22829;SDS011;11581;51.250;6.778;2023-03-20T04:06:41;13.05;;;6.60;;
22829;SDS011;11581;51.250;6.778;2023-03-20T04:09:07;8.15;;;5.43;;
22829;SDS011;11581;51.250;6.778;2023-03-20T04:11:34;10.02;;;6.38;;
22829;SDS011;11581;51.250;6.778;2023-03-20T04:14:03;9.43;;;6.18;;
22829;SDS011;11581;51.250;6.778;2023-03-20T04:16:29;11.88;;;6.60;;
22829;SDS011;11581;51.250;6.778;2023-03-20T04:18:56;9.70;;;6.18;;
22829;SDS011;11581;51.250;6.778;2023-03-20T04:21:23;8.57;;;5.60;;
22829;SDS011;11581;51.250;6.778;2023-03-20T04:23:50;9.88;;;6.00;;
22829;SDS011;11581;51.250;6.778;2023-03-20T04:26:20;8.98;;;5.78;;
22829;SDS011;11581;51.250;6.778;2023-03-20T04:28:48;9.75;;;6.00;;
22829;SDS011;11581;51.250;6.778;2023-03-20T04:31:32;8.65;;;6.28;;
22829;SDS011;11581;51.250;6.778;2023-03-20T04:34:10;8.85;;;5.70;;
22829;SDS011;11581;51.250;6.778;2023-03-20T04:36:55;8.68;;;6.03;;
22829;SDS011;11581;51.250;6.778;2023-03-20T04:39:29;8.63;;;5.68;;
22829;SDS011;11581;51.250;6.778;2023-03-20T04:41:56;10.40;;;5.90;;
22829;SDS011;11581;51.250;6.778;2023-03-20T04:44:23;7.82;;;5.47;;
22829;SDS011;11581;51.250;6.778;2023-03-20T04:46:51;10.55;;;6.30;;
22829;SDS011;11581;51.250;6.778;2023-03-20T04:49:18;8.25;;;5.78;;
22829;SDS011;11581;51.250;6.778;2023-03-20T04:51:46;9.00;;;6.38;;
22829;SDS011;11581;51.250;6.778;2023-03-20T04:54:15;9.93;;;6.00;;
22829;SDS011;11581;51.250;6.778;2023-03-20T04:56:42;11.00;;;6.43;;
22829;SDS011;11581;51.250;6.778;2023-03-20T04:59:13;11.82;;;7.07;;
22829;SDS011;11581;51.250;6.778;2023-03-20T05:01:40;10.88;;;6.32;;
22829;SDS011;11581;51.250;6.778;2023-03-20T05:04:08;9.18;;;6.07;;
22829;SDS011;11581;51.250;6.778;2023-03-20T05:06:35;9.30;;;5.93;;
22829;SDS011;11581;51.250;6.778;2023-03-20T05:09:02;10.35;;;5.95;;
22829;SDS011;11581;51.250;6.778;2023-03-20T05:11:30;7.60;;;5.53;;
22829;SDS011;11581;51.250;6.778;2023-03-20T05:14:03;8.50;;;5.43;;
22829;SDS011;11581;51.250;6.778;2023-03-20T05:16:48;6.60;;;5.18;;
22829;SDS011;11581;51.250;6.778;2023-03-20T05:19:46;9.80;;;6.22;;
22829;SDS011;11581;51.250;6.778;2023-03-20T05:22:25;8.15;;;6.07;;
22829;SDS011;11581;51.250;6.778;2023-03-20T05:25:16;10.38;;;6.93;;
22829;SDS011;11581;51.250;6.778;2023-03-20T05:28:06;10.40;;;6.35;;
22829;SDS011;11581;51.250;6.778;2023-03-20T05:30:52;10.02;;;6.25;;
22829;SDS011;11581;51.250;6.778;2023-03-20T05:33:37;9.50;;;6.65;;
22829;SDS011;11581;51.250;6.778;2023-03-20T05:36:15;12.10;;;7.05;;
22829;SDS011;11581;51.250;6.778;2023-03-20T05:38:51;10.48;;;6.57;;
22829;SDS011;11581;51.250;6.778;2023-03-20T05:41:39;11.25;;;7.45;;
22829;SDS011;11581;51.250;6.778;2023-03-20T05:44:31;9.68;;;6.80;;
22829;SDS011;11581;51.250;6.778;2023-03-20T05:47:21;10.65;;;7.05;;
22829;SDS011;11581;51.250;6.778;2023-03-20T05:50:14;10.55;;;7.07;;
22829;SDS011;11581;51.250;6.778;2023-03-20T05:52:52;11.05;;;6.90;;
22829;SDS011;11581;51.250;6.778;2023-03-20T05:55:57;12.35;;;7.22;;
22829;SDS011;11581;51.250;6.778;2023-03-20T05:58:39;10.52;;;7.40;;
22829;SDS011;11581;51.250;6.778;2023-03-20T06:01:25;9.27;;;6.63;;
22829;SDS011;11581;51.250;6.778;2023-03-20T06:03:52;13.48;;;8.02;;
22829;SDS011;11581;51.250;6.778;2023-03-20T06:06:38;13.05;;;8.10;;
22829;SDS011;11581;51.250;6.778;2023-03-20T06:09:07;13.35;;;7.70;;
22829;SDS011;11581;51.250;6.778;2023-03-20T06:11:34;13.77;;;8.30;;
22829;SDS011;11581;51.250;6.778;2023-03-20T06:14:01;13.82;;;8.38;;
22829;SDS011;11581;51.250;6.778;2023-03-20T06:16:35;10.55;;;6.28;;
22829;SDS011;11581;51.250;6.778;2023-03-20T06:19:02;12.40;;;8.15;;
22829;SDS011;11581;51.250;6.778;2023-03-20T06:21:30;12.50;;;7.95;;
22829;SDS011;11581;51.250;6.778;2023-03-20T06:23:56;11.18;;;7.03;;
22829;SDS011;11581;51.250;6.778;2023-03-20T06:26:25;15.68;;;8.00;;
22829;SDS011;11581;51.250;6.778;2023-03-20T06:29:00;12.15;;;7.07;;
22829;SDS011;11581;51.250;6.778;2023-03-20T06:31:27;13.95;;;7.85;;
22829;SDS011;11581;51.250;6.778;2023-03-20T06:33:54;11.25;;;6.72;;
22829;SDS011;11581;51.250;6.778;2023-03-20T06:36:22;9.98;;;6.18;;
22829;SDS011;11581;51.250;6.778;2023-03-20T06:38:54;11.95;;;7.25;;
22829;SDS011;11581;51.250;6.778;2023-03-20T06:41:22;8.65;;;6.13;;
22829;SDS011;11581;51.250;6.778;2023-03-20T06:43:50;10.32;;;6.70;;
22829;SDS011;11581;51.250;6.778;2023-03-20T06:46:17;8.73;;;5.82;;
22829;SDS011;11581;51.250;6.778;2023-03-20T06:48:45;10.65;;;6.60;;
22829;SDS011;11581;51.250;6.778;2023-03-20T06:51:13;10.27;;;6.53;;
22829;SDS011;11581;51.250;6.778;2023-03-20T06:53:48;9.27;;;5.90;;
22829;SDS011;11581;51.250;6.778;2023-03-20T06:56:19;13.38;;;6.07;;
22829;SDS011;11581;51.250;6.778;2023-03-20T06:58:45;11.00;;;5.82;;
22829;SDS011;11581;51.250;6.778;2023-03-20T07:01:14;9.75;;;5.40;;
22829;SDS011;11581;51.250;6.778;2023-03-20T07:03:44;15.85;;;5.93;;
22829;SDS011;11581;51.250;6.778;2023-03-20T07:06:12;9.93;;;5.53;;
22829;SDS011;11581;51.250;6.778;2023-03-20T07:08:40;8.23;;;4.85;;
22829;SDS011;11581;51.250;6.778;2023-03-20T07:11:07;7.93;;;4.40;;
22829;SDS011;11581;51.250;6.778;2023-03-20T07:13:34;7.15;;;4.20;;
22829;SDS011;11581;51.250;6.778;2023-03-20T07:16:11;5.80;;;3.72;;
22829;SDS011;11581;51.250;6.778;2023-03-20T07:18:41;8.32;;;4.00;;
22829;SDS011;11581;51.250;6.778;2023-03-20T07:21:08;8.00;;;3.85;;
22829;SDS011;11581;51.250;6.778;2023-03-20T07:23:36;8.25;;;4.07;;
22829;SDS011;11581;51.250;6.778;2023-03-20T07:26:03;6.43;;;3.67;;
22829;SDS011;11581;51.250;6.778;2023-03-20T07:28:31;8.07;;;3.80;;
22829;SDS011;11581;51.250;6.778;2023-03-20T07:31:20;5.47;;;3.63;;
22829;SDS011;11581;51.250;6.778;2023-03-20T07:33:56;7.45;;;3.70;;
22829;SDS011;11581;51.250;6.778;2023-03-20T07:36:23;6.97;;;4.32;;
22829;SDS011;11581;51.250;6.778;2023-03-20T07:38:50;7.63;;;4.68;;
22829;SDS011;11581;51.250;6.778;2023-03-20T07:41:17;7.93;;;3.80;;
22829;SDS011;11581;51.250;6.778;2023-03-20T07:43:54;8.93;;;4.65;;
22829;SDS011;11581;51.250;6.778;2023-03-20T07:46:39;9.85;;;5.47;;
22829;SDS011;11581;51.250;6.778;2023-03-20T07:49:08;8.77;;;4.63;;
22829;SDS011;11581;51.250;6.778;2023-03-20T07:51:35;10.45;;;5.05;;
22829;SDS011;11581;51.250;6.778;2023-03-20T07:54:02;9.85;;;5.45;;
22829;SDS011;11581;51.250;6.778;2023-03-20T07:56:29;10.45;;;4.97;;
22829;SDS011;11581;51.250;6.778;2023-03-20T07:58:56;9.23;;;6.03;;
22829;SDS011;11581;51.250;6.778;2023-03-20T08:01:23;11.15;;;5.85;;
22829;SDS011;11581;51.250;6.778;2023-03-20T08:03:50;9.32;;;4.90;;
22829;SDS011;11581;51.250;6.778;2023-03-20T08:06:18;14.50;;;5.28;;
22829;SDS011;11581;51.250;6.778;2023-03-20T08:08:44;8.57;;;5.78;;
22829;SDS011;11581;51.250;6.778;2023-03-20T08:11:11;11.15;;;5.95;;
22829;SDS011;11581;51.250;6.778;2023-03-20T08:13:38;13.88;;;6.03;;
22829;SDS011;11581;51.250;6.778;2023-03-20T08:16:05;11.32;;;5.50;;
22829;SDS011;11581;51.250;6.778;2023-03-20T08:18:32;10.57;;;5.82;;
22829;SDS011;11581;51.250;6.778;2023-03-20T08:20:59;10.07;;;5.47;;
22829;SDS011;11581;51.250;6.778;2023-03-20T08:23:27;8.90;;;5.10;;
22829;SDS011;11581;51.250;6.778;2023-03-20T08:25:53;8.63;;;4.72;;
22829;SDS011;11581;51.250;6.778;2023-03-20T08:28:20;7.10;;;4.53;;
22829;SDS011;11581;51.250;6.778;2023-03-20T08:30:47;9.23;;;5.07;;
22829;SDS011;11581;51.250;6.778;2023-03-20T08:33:15;12.07;;;6.18;;
22829;SDS011;11581;51.250;6.778;2023-03-20T08:35:42;9.50;;;4.55;;
22829;SDS011;11581;51.250;6.778;2023-03-20T08:38:10;7.30;;;4.25;;
22829;SDS011;11581;51.250;6.778;2023-03-20T08:40:40;8.07;;;4.15;;
22829;SDS011;11581;51.250;6.778;2023-03-20T08:43:07;9.30;;;4.65;;
22829;SDS011;11581;51.250;6.778;2023-03-20T08:45:34;7.22;;;3.92;;
22829;SDS011;11581;51.250;6.778;2023-03-20T08:48:00;7.35;;;4.38;;
22829;SDS011;11581;51.250;6.778;2023-03-20T08:50:27;7.07;;;3.72;;
22829;SDS011;11581;51.250;6.778;2023-03-20T08:52:54;7.80;;;3.80;;
22829;SDS011;11581;51.250;6.778;2023-03-20T08:55:21;8.07;;;3.90;;
22829;SDS011;11581;51.250;6.778;2023-03-20T08:57:49;7.18;;;3.85;;
22829;SDS011;11581;51.250;6.778;2023-03-20T09:00:16;7.57;;;3.42;;
22829;SDS011;11581;51.250;6.778;2023-03-20T09:02:44;9.00;;;3.53;;
22829;SDS011;11581;51.250;6.778;2023-03-20T09:05:11;7.00;;;3.85;;
22829;SDS011;11581;51.250;6.778;2023-03-20T09:07:37;8.05;;;3.65;;
22829;SDS011;11581;51.250;6.778;2023-03-20T09:10:04;6.90;;;3.33;;
22829;SDS011;11581;51.250;6.778;2023-03-20T09:12:32;6.57;;;3.03;;
22829;SDS011;11581;51.250;6.778;2023-03-20T09:15:01;6.07;;;3.00;;
22829;SDS011;11581;51.250;6.778;2023-03-20T09:17:28;6.93;;;3.13;;
22829;SDS011;11581;51.250;6.778;2023-03-20T09:19:55;6.90;;;2.90;;
22829;SDS011;11581;51.250;6.778;2023-03-20T09:22:22;6.50;;;2.67;;
22829;SDS011;11581;51.250;6.778;2023-03-20T09:24:52;7.03;;;3.05;;
22829;SDS011;11581;51.250;6.778;2023-03-20T09:27:18;4.78;;;2.42;;
22829;SDS011;11581;51.250;6.778;2023-03-20T09:29:45;6.15;;;2.83;;
22829;SDS011;11581;51.250;6.778;2023-03-20T09:32:14;6.82;;;2.65;;
22829;SDS011;11581;51.250;6.778;2023-03-20T09:34:41;6.03;;;2.38;;
22829;SDS011;11581;51.250;6.778;2023-03-20T09:37:08;5.15;;;2.63;;
22829;SDS011;11581;51.250;6.778;2023-03-20T09:39:35;5.40;;;2.15;;
22829;SDS011;11581;51.250;6.778;2023-03-20T09:42:03;7.70;;;2.05;;
22829;SDS011;11581;51.250;6.778;2023-03-20T09:44:42;6.43;;;1.95;;
22829;SDS011;11581;51.250;6.778;2023-03-20T09:47:20;5.68;;;2.33;;
22829;SDS011;11581;51.250;6.778;2023-03-20T09:50:10;6.82;;;2.72;;
22829;SDS011;11581;51.250;6.778;2023-03-20T09:52:49;5.22;;;2.38;;
22829;SDS011;11581;51.250;6.778;2023-03-20T09:55:22;6.43;;;2.00;;
22829;SDS011;11581;51.250;6.778;2023-03-20T09:57:56;6.30;;;2.03;;
22829;SDS011;11581;51.250;6.778;2023-03-20T10:00:27;6.55;;;2.10;;
22829;SDS011;11581;51.250;6.778;2023-03-20T10:02:58;6.32;;;2.03;;
22829;SDS011;11581;51.250;6.778;2023-03-20T10:05:27;6.25;;;2.10;;
22829;SDS011;11581;51.250;6.778;2023-03-20T10:07:56;5.65;;;1.50;;
22829;SDS011;11581;51.250;6.778;2023-03-20T10:10:26;4.53;;;1.50;;
22829;SDS011;11581;51.250;6.778;2023-03-20T10:13:04;5.03;;;2.53;;
22829;SDS011;11581;51.250;6.778;2023-03-20T10:15:45;6.63;;;2.13;;
22829;SDS011;11581;51.250;6.778;2023-03-20T10:18:19;5.82;;;1.70;;
22829;SDS011;11581;51.250;6.778;2023-03-20T10:20:53;5.47;;;2.10;;
22829;SDS011;11581;51.250;6.778;2023-03-20T10:23:25;4.95;;;1.90;;
22829;SDS011;11581;51.250;6.778;2023-03-20T10:25:58;5.57;;;1.60;;
22829;SDS011;11581;51.250;6.778;2023-03-20T10:28:30;5.63;;;2.05;;
22829;SDS011;11581;51.250;6.778;2023-03-20T10:31:07;5.28;;;1.75;;
22829;SDS011;11581;51.250;6.778;2023-03-20T10:33:49;3.95;;;1.85;;
22829;SDS011;11581;51.250;6.778;2023-03-20T10:39:17;4.68;;;1.77;;
22829;SDS011;11581;51.250;6.778;2023-03-20T10:41:52;5.28;;;2.28;;
22829;SDS011;11581;51.250;6.778;2023-03-20T10:44:23;4.72;;;2.15;;
22829;SDS011;11581;51.250;6.778;2023-03-20T10:46:56;3.40;;;1.58;;
22829;SDS011;11581;51.250;6.778;2023-03-20T10:49:29;5.53;;;2.00;;
22829;SDS011;11581;51.250;6.778;2023-03-20T10:52:03;8.05;;;2.58;;
22829;SDS011;11581;51.250;6.778;2023-03-20T10:54:35;5.95;;;2.58;;
22829;SDS011;11581;51.250;6.778;2023-03-20T10:57:05;6.85;;;2.10;;
22829;SDS011;11581;51.250;6.778;2023-03-20T10:59:39;8.23;;;2.50;;
22829;SDS011;11581;51.250;6.778;2023-03-20T11:02:09;4.28;;;1.80;;
22829;SDS011;11581;51.250;6.778;2023-03-20T11:04:38;6.57;;;2.00;;
22829;SDS011;11581;51.250;6.778;2023-03-20T11:07:06;6.32;;;1.90;;
22829;SDS011;11581;51.250;6.778;2023-03-20T11:09:43;4.68;;;2.30;;
22829;SDS011;11581;51.250;6.778;2023-03-20T11:12:13;7.97;;;2.67;;
22829;SDS011;11581;51.250;6.778;2023-03-20T11:14:42;10.63;;;2.40;;
22829;SDS011;11581;51.250;6.778;2023-03-20T11:17:09;5.25;;;2.40;;
22829;SDS011;11581;51.250;6.778;2023-03-20T11:19:38;6.13;;;2.15;;
22829;SDS011;11581;51.250;6.778;2023-03-20T11:22:07;4.25;;;2.17;;
22829;SDS011;11581;51.250;6.778;2023-03-20T11:24:36;6.22;;;2.50;;
22829;SDS011;11581;51.250;6.778;2023-03-20T11:27:06;7.75;;;2.03;;
22829;SDS011;11581;51.250;6.778;2023-03-20T11:29:34;5.45;;;2.55;;
22829;SDS011;11581;51.250;6.778;2023-03-20T11:32:05;6.45;;;2.13;;
22829;SDS011;11581;51.250;6.778;2023-03-20T11:34:35;6.57;;;2.08;;
22829;SDS011;11581;51.250;6.778;2023-03-20T11:37:17;5.07;;;2.05;;
22829;SDS011;11581;51.250;6.778;2023-03-20T11:39:55;6.78;;;1.75;;
22829;SDS011;11581;51.250;6.778;2023-03-20T11:42:24;5.18;;;1.75;;
22829;SDS011;11581;51.250;6.778;2023-03-20T11:44:55;3.30;;;1.27;;
22829;SDS011;11581;51.250;6.778;2023-03-20T11:47:24;5.47;;;1.60;;
22829;SDS011;11581;51.250;6.778;2023-03-20T11:49:53;6.53;;;1.80;;
22829;SDS011;11581;51.250;6.778;2023-03-20T11:52:23;3.75;;;1.40;;
22829;SDS011;11581;51.250;6.778;2023-03-20T11:54:53;4.55;;;1.58;;
22829;SDS011;11581;51.250;6.778;2023-03-20T11:57:32;3.72;;;1.40;;
22829;SDS011;11581;51.250;6.778;2023-03-20T12:00:02;5.55;;;1.33;;
22829;SDS011;11581;51.250;6.778;2023-03-20T12:02:32;5.85;;;1.70;;
22829;SDS011;11581;51.250;6.778;2023-03-20T12:05:01;5.18;;;1.50;;
22829;SDS011;11581;51.250;6.778;2023-03-20T12:07:43;6.53;;;1.40;;
22829;SDS011;11581;51.250;6.778;2023-03-20T12:10:14;4.20;;;1.17;;
22829;SDS011;11581;51.250;6.778;2023-03-20T12:12:44;4.55;;;1.25;;
22829;SDS011;11581;51.250;6.778;2023-03-20T12:15:15;5.10;;;1.55;;
22829;SDS011;11581;51.250;6.778;2023-03-20T12:17:49;4.60;;;1.77;;
22829;SDS011;11581;51.250;6.778;2023-03-20T12:20:27;5.13;;;1.63;;
22829;SDS011;11581;51.250;6.778;2023-03-20T12:23:05;5.22;;;1.40;;
22829;SDS011;11581;51.250;6.778;2023-03-20T12:25:39;6.05;;;2.05;;
22829;SDS011;11581;51.250;6.778;2023-03-20T12:28:13;3.67;;;1.40;;
22829;SDS011;11581;51.250;6.778;2023-03-20T12:30:58;5.57;;;1.95;;
22829;SDS011;11581;51.250;6.778;2023-03-20T12:36:08;8.95;;;2.20;;
22829;SDS011;11581;51.250;6.778;2023-03-20T12:38:40;4.88;;;1.92;;
22829;SDS011;11581;51.250;6.778;2023-03-20T12:41:10;5.85;;;1.95;;
22829;SDS011;11581;51.250;6.778;2023-03-20T12:43:41;5.93;;;1.35;;
22829;SDS011;11581;51.250;6.778;2023-03-20T12:46:22;5.18;;;1.77;;
22829;SDS011;11581;51.250;6.778;2023-03-20T12:48:54;4.72;;;1.88;;
22829;SDS011;11581;51.250;6.778;2023-03-20T12:51:33;5.57;;;1.90;;
22829;SDS011;11581;51.250;6.778;2023-03-20T12:54:10;5.82;;;2.05;;
22829;SDS011;11581;51.250;6.778;2023-03-20T12:56:50;5.30;;;1.65;;
22829;SDS011;11581;51.250;6.778;2023-03-20T12:59:29;6.35;;;2.15;;
22829;SDS011;11581;51.250;6.778;2023-03-20T13:02:09;7.88;;;2.30;;
22829;SDS011;11581;51.250;6.778;2023-03-20T13:04:56;4.35;;;1.75;;
22829;SDS011;11581;51.250;6.778;2023-03-20T13:07:39;5.35;;;1.50;;
22829;SDS011;11581;51.250;6.778;2023-03-20T13:10:20;10.27;;;2.35;;
22829;SDS011;11581;51.250;6.778;2023-03-20T13:12:56;3.50;;;1.45;;
22829;SDS011;11581;51.250;6.778;2023-03-20T13:15:34;7.95;;;1.95;;
22829;SDS011;11581;51.250;6.778;2023-03-20T13:18:15;5.72;;;1.63;;
22829;SDS011;11581;51.250;6.778;2023-03-20T13:20:48;6.25;;;1.83;;
22829;SDS011;11581;51.250;6.778;2023-03-20T13:23:18;6.15;;;2.05;;
22829;SDS011;11581;51.250;6.778;2023-03-20T13:25:55;4.93;;;1.52;;
22829;SDS011;11581;51.250;6.778;2023-03-20T13:28:34;3.75;;;1.65;;
22829;SDS011;11581;51.250;6.778;2023-03-20T13:31:12;4.20;;;1.52;;
22829;SDS011;11581;51.250;6.778;2023-03-20T13:33:46;6.47;;;2.22;;
22829;SDS011;11581;51.250;6.778;2023-03-20T13:36:24;5.35;;;1.60;;
22829;SDS011;11581;51.250;6.778;2023-03-20T13:39:05;6.28;;;1.70;;
22829;SDS011;11581;51.250;6.778;2023-03-20T13:41:39;7.63;;;1.95;;
22829;SDS011;11581;51.250;6.778;2023-03-20T13:44:07;7.35;;;1.60;;
22829;SDS011;11581;51.250;6.778;2023-03-20T13:46:38;3.60;;;1.52;;
22829;SDS011;11581;51.250;6.778;2023-03-20T13:49:12;5.00;;;1.65;;
22829;SDS011;11581;51.250;6.778;2023-03-20T13:51:43;4.38;;;1.40;;
22829;SDS011;11581;51.250;6.778;2023-03-20T13:54:22;3.95;;;1.52;;
22829;SDS011;11581;51.250;6.778;2023-03-20T13:57:08;4.95;;;1.33;;
22829;SDS011;11581;51.250;6.778;2023-03-20T13:59:49;7.53;;;1.55;;
22829;SDS011;11581;51.250;6.778;2023-03-20T14:02:38;7.22;;;2.03;;
22829;SDS011;11581;51.250;6.778;2023-03-20T14:05:20;5.18;;;1.63;;
22829;SDS011;11581;51.250;6.778;2023-03-20T14:07:53;6.05;;;1.70;;
22829;SDS011;11581;51.250;6.778;2023-03-20T14:10:37;8.02;;;1.63;;
22829;SDS011;11581;51.250;6.778;2023-03-20T14:13:09;5.75;;;1.95;;
22829;SDS011;11581;51.250;6.778;2023-03-20T14:18:12;4.85;;;1.70;;
22829;SDS011;11581;51.250;6.778;2023-03-20T14:20:41;8.07;;;2.20;;
22829;SDS011;11581;51.250;6.778;2023-03-20T14:23:14;12.13;;;2.15;;
22829;SDS011;11581;51.250;6.778;2023-03-20T14:25:42;4.23;;;1.63;;
22829;SDS011;11581;51.250;6.778;2023-03-20T14:28:23;6.78;;;1.77;;
22829;SDS011;11581;51.250;6.778;2023-03-20T14:31:10;6.60;;;1.80;;
22829;SDS011;11581;51.250;6.778;2023-03-20T14:33:40;6.43;;;2.00;;
22829;SDS011;11581;51.250;6.778;2023-03-20T14:36:26;5.53;;;1.95;;
22829;SDS011;11581;51.250;6.778;2023-03-20T14:39:01;6.15;;;1.85;;
22829;SDS011;11581;51.250;6.778;2023-03-20T14:41:37;6.32;;;1.90;;
22829;SDS011;11581;51.250;6.778;2023-03-20T14:44:23;4.68;;;1.42;;
22829;SDS011;11581;51.250;6.778;2023-03-20T14:47:01;8.30;;;2.20;;
22829;SDS011;11581;51.250;6.778;2023-03-20T14:49:44;7.03;;;2.35;;
22829;SDS011;11581;51.250;6.778;2023-03-20T14:52:23;7.07;;;2.33;;
22829;SDS011;11581;51.250;6.778;2023-03-20T14:54:55;7.38;;;1.92;;
22829;SDS011;11581;51.250;6.778;2023-03-20T14:57:40;10.65;;;1.75;;
22829;SDS011;11581;51.250;6.778;2023-03-20T15:00:17;6.03;;;2.10;;
22829;SDS011;11581;51.250;6.778;2023-03-20T15:02:47;6.28;;;2.10;;
22829;SDS011;11581;51.250;6.778;2023-03-20T15:05:20;7.30;;;2.17;;
22829;SDS011;11581;51.250;6.778;2023-03-20T15:07:50;6.77;;;1.90;;
22829;SDS011;11581;51.250;6.778;2023-03-20T15:10:18;7.07;;;1.70;;
22829;SDS011;11581;51.250;6.778;2023-03-20T15:12:44;7.57;;;1.90;;
22829;SDS011;11581;51.250;6.778;2023-03-20T15:15:22;6.28;;;1.88;;
22829;SDS011;11581;51.250;6.778;2023-03-20T15:17:50;9.57;;;2.30;;
22829;SDS011;11581;51.250;6.778;2023-03-20T15:20:18;8.65;;;1.92;;
22829;SDS011;11581;51.250;6.778;2023-03-20T15:22:47;7.43;;;1.75;;
22829;SDS011;11581;51.250;6.778;2023-03-20T15:25:15;7.85;;;1.85;;
22829;SDS011;11581;51.250;6.778;2023-03-20T15:27:42;7.07;;;1.80;;
22829;SDS011;11581;51.250;6.778;2023-03-20T15:30:10;4.95;;;1.80;;
22829;SDS011;11581;51.250;6.778;2023-03-20T15:32:42;9.27;;;2.67;;